sensor_id;sensor_type;location;lat;lon;timestamp;P1;durP1;ratioP1;P2;durP2;ratioP2
7997;SDS011;4044;49.814;7.828;2023-03-14T00:00:50;2.30;;;1.47;;
7997;SDS011;4044;49.814;7.828;2023-03-14T00:03:16;2.60;;;1.43;;
7997;SDS011;4044;49.814;7.828;2023-03-14T00:05:42;3.00;;;1.60;;
7997;SDS011;4044;49.814;7.828;2023-03-14T00:08:07;4.33;;;1.87;;
7997;SDS011;4044;49.814;7.828;2023-03-14T00:10:33;3.80;;;1.50;;
7997;SDS011;4044;49.814;7.828;2023-03-14T00:13:01;3.73;;;1.83;;
7997;SDS011;4044;49.814;7.828;2023-03-14T00:15:26;2.80;;;1.70;;
7997;SDS011;4044;49.814;7.828;2023-03-14T00:17:52;5.07;;;1.83;;
7997;SDS011;4044;49.814;7.828;2023-03-14T00:20:17;5.63;;;1.70;;
7997;SDS011;4044;49.814;7.828;2023-03-14T00:22:43;2.77;;;1.70;;
7997;SDS011;4044;49.814;7.828;2023-03-14T00:25:09;4.47;;;1.80;;
7997;SDS011;4044;49.814;7.828;2023-03-14T00:27:36;4.40;;;1.90;;
7997;SDS011;4044;49.814;7.828;2023-03-14T00:30:02;3.00;;;1.70;;
7997;SDS011;4044;49.814;7.828;2023-03-14T00:32:28;4.73;;;1.80;;
7997;SDS011;4044;49.814;7.828;2023-03-14T00:34:54;5.70;;;1.87;;
7997;SDS011;4044;49.814;7.828;2023-03-14T00:37:19;8.07;;;2.50;;
7997;SDS011;4044;49.814;7.828;2023-03-14T00:39:45;3.90;;;1.73;;
7997;SDS011;4044;49.814;7.828;2023-03-14T00:42:11;3.90;;;1.60;;
7997;SDS011;4044;49.814;7.828;2023-03-14T00:44:36;5.60;;;1.67;;
7997;SDS011;4044;49.814;7.828;2023-03-14T00:47:02;4.73;;;1.83;;
7997;SDS011;4044;49.814;7.828;2023-03-14T00:49:27;5.07;;;1.80;;
7997;SDS011;4044;49.814;7.828;2023-03-14T00:51:53;4.27;;;1.80;;
7997;SDS011;4044;49.814;7.828;2023-03-14T00:54:19;2.90;;;1.80;;
7997;SDS011;4044;49.814;7.828;2023-03-14T00:56:45;4.50;;;1.97;;
7997;SDS011;4044;49.814;7.828;2023-03-14T00:59:10;6.00;;;1.80;;
7997;SDS011;4044;49.814;7.828;2023-03-14T01:01:36;4.67;;;2.03;;
7997;SDS011;4044;49.814;7.828;2023-03-14T01:04:01;3.47;;;1.83;;
7997;SDS011;4044;49.814;7.828;2023-03-14T01:06:28;3.83;;;2.13;;
7997;SDS011;4044;49.814;7.828;2023-03-14T01:08:55;5.27;;;2.00;;
7997;SDS011;4044;49.814;7.828;2023-03-14T01:11:22;3.40;;;1.90;;
7997;SDS011;4044;49.814;7.828;2023-03-14T01:13:49;4.17;;;1.90;;
7997;SDS011;4044;49.814;7.828;2023-03-14T01:16:15;3.03;;;1.90;;
7997;SDS011;4044;49.814;7.828;2023-03-14T01:18:42;6.23;;;2.03;;
7997;SDS011;4044;49.814;7.828;2023-03-14T01:21:13;2.70;;;2.00;;
7997;SDS011;4044;49.814;7.828;2023-03-14T01:23:44;5.63;;;2.10;;
7997;SDS011;4044;49.814;7.828;2023-03-14T01:26:11;3.53;;;1.87;;
7997;SDS011;4044;49.814;7.828;2023-03-14T01:28:39;3.47;;;1.80;;
7997;SDS011;4044;49.814;7.828;2023-03-14T01:31:06;3.80;;;2.00;;
7997;SDS011;4044;49.814;7.828;2023-03-14T01:33:33;6.23;;;1.93;;
7997;SDS011;4044;49.814;7.828;2023-03-14T01:35:59;3.10;;;1.80;;
7997;SDS011;4044;49.814;7.828;2023-03-14T01:38:27;7.00;;;2.07;;
7997;SDS011;4044;49.814;7.828;2023-03-14T01:40:56;5.97;;;2.33;;
7997;SDS011;4044;49.814;7.828;2023-03-14T01:43:22;5.87;;;1.97;;
7997;SDS011;4044;49.814;7.828;2023-03-14T01:48:37;5.27;;;1.97;;
7997;SDS011;4044;49.814;7.828;2023-03-14T01:51:08;4.07;;;1.93;;
7997;SDS011;4044;49.814;7.828;2023-03-14T01:53:36;4.23;;;1.60;;
7997;SDS011;4044;49.814;7.828;2023-03-14T01:56:04;3.17;;;1.70;;
7997;SDS011;4044;49.814;7.828;2023-03-14T01:58:31;3.30;;;1.87;;
7997;SDS011;4044;49.814;7.828;2023-03-14T02:00:59;6.70;;;2.03;;
7997;SDS011;4044;49.814;7.828;2023-03-14T02:03:26;6.50;;;2.20;;
7997;SDS011;4044;49.814;7.828;2023-03-14T02:05:54;2.10;;;1.83;;
7997;SDS011;4044;49.814;7.828;2023-03-14T02:08:24;6.23;;;2.30;;
7997;SDS011;4044;49.814;7.828;2023-03-14T02:10:52;5.20;;;2.00;;
7997;SDS011;4044;49.814;7.828;2023-03-14T02:13:18;7.33;;;2.20;;
7997;SDS011;4044;49.814;7.828;2023-03-14T02:15:45;4.60;;;2.10;;
7997;SDS011;4044;49.814;7.828;2023-03-14T02:18:11;5.17;;;2.17;;
7997;SDS011;4044;49.814;7.828;2023-03-14T02:26:20;6.10;;;2.30;;
7997;SDS011;4044;49.814;7.828;2023-03-14T02:28:51;7.40;;;3.07;;
7997;SDS011;4044;49.814;7.828;2023-03-14T02:31:18;6.10;;;2.73;;
7997;SDS011;4044;49.814;7.828;2023-03-14T02:33:45;6.10;;;2.67;;
7997;SDS011;4044;49.814;7.828;2023-03-14T02:36:11;5.70;;;2.57;;
7997;SDS011;4044;49.814;7.828;2023-03-14T02:41:10;5.87;;;2.70;;
7997;SDS011;4044;49.814;7.828;2023-03-14T02:43:36;4.80;;;2.57;;
7997;SDS011;4044;49.814;7.828;2023-03-14T02:46:01;4.57;;;2.70;;
7997;SDS011;4044;49.814;7.828;2023-03-14T02:48:30;6.10;;;2.57;;
7997;SDS011;4044;49.814;7.828;2023-03-14T02:51:18;6.43;;;2.80;;
7997;SDS011;4044;49.814;7.828;2023-03-14T02:53:44;7.33;;;2.60;;
7997;SDS011;4044;49.814;7.828;2023-03-14T02:56:10;5.47;;;2.40;;
7997;SDS011;4044;49.814;7.828;2023-03-14T02:58:36;5.27;;;2.27;;
7997;SDS011;4044;49.814;7.828;2023-03-14T03:01:03;4.73;;;2.60;;
7997;SDS011;4044;49.814;7.828;2023-03-14T03:03:28;3.60;;;2.60;;
7997;SDS011;4044;49.814;7.828;2023-03-14T03:05:55;5.43;;;2.40;;
7997;SDS011;4044;49.814;7.828;2023-03-14T03:08:22;6.13;;;2.63;;
7997;SDS011;4044;49.814;7.828;2023-03-14T03:10:49;8.57;;;2.87;;
7997;SDS011;4044;49.814;7.828;2023-03-14T03:13:15;5.13;;;2.13;;
7997;SDS011;4044;49.814;7.828;2023-03-14T03:15:41;4.23;;;2.10;;
7997;SDS011;4044;49.814;7.828;2023-03-14T03:18:07;5.13;;;2.37;;
7997;SDS011;4044;49.814;7.828;2023-03-14T03:20:33;7.03;;;2.47;;
7997;SDS011;4044;49.814;7.828;2023-03-14T03:22:59;6.23;;;2.20;;
7997;SDS011;4044;49.814;7.828;2023-03-14T03:25:25;4.97;;;2.40;;
7997;SDS011;4044;49.814;7.828;2023-03-14T03:27:51;5.97;;;2.17;;
7997;SDS011;4044;49.814;7.828;2023-03-14T03:30:17;6.23;;;2.37;;
7997;SDS011;4044;49.814;7.828;2023-03-14T03:32:43;3.00;;;2.00;;
7997;SDS011;4044;49.814;7.828;2023-03-14T03:35:08;4.13;;;2.20;;
7997;SDS011;4044;49.814;7.828;2023-03-14T03:37:34;7.97;;;2.60;;
7997;SDS011;4044;49.814;7.828;2023-03-14T03:40:00;5.43;;;2.07;;
7997;SDS011;4044;49.814;7.828;2023-03-14T03:42:26;4.93;;;2.10;;
7997;SDS011;4044;49.814;7.828;2023-03-14T03:44:52;4.50;;;2.23;;
7997;SDS011;4044;49.814;7.828;2023-03-14T03:47:17;5.33;;;2.30;;
7997;SDS011;4044;49.814;7.828;2023-03-14T03:49:43;4.40;;;1.87;;
7997;SDS011;4044;49.814;7.828;2023-03-14T03:52:08;5.97;;;2.50;;
7997;SDS011;4044;49.814;7.828;2023-03-14T03:54:34;3.70;;;1.80;;
7997;SDS011;4044;49.814;7.828;2023-03-14T03:57:00;2.93;;;1.93;;
7997;SDS011;4044;49.814;7.828;2023-03-14T03:59:26;4.23;;;2.00;;
7997;SDS011;4044;49.814;7.828;2023-03-14T04:01:51;4.50;;;1.70;;
7997;SDS011;4044;49.814;7.828;2023-03-14T04:04:17;4.83;;;1.90;;
7997;SDS011;4044;49.814;7.828;2023-03-14T04:06:42;2.77;;;1.50;;
7997;SDS011;4044;49.814;7.828;2023-03-14T04:09:09;2.53;;;1.60;;
7997;SDS011;4044;49.814;7.828;2023-03-14T04:11:35;3.07;;;1.70;;
7997;SDS011;4044;49.814;7.828;2023-03-14T04:14:00;5.40;;;2.00;;
7997;SDS011;4044;49.814;7.828;2023-03-14T04:16:26;4.27;;;1.90;;
7997;SDS011;4044;49.814;7.828;2023-03-14T04:18:52;2.63;;;1.53;;
7997;SDS011;4044;49.814;7.828;2023-03-14T04:21:18;3.70;;;1.70;;
7997;SDS011;4044;49.814;7.828;2023-03-14T04:23:43;4.00;;;1.30;;
7997;SDS011;4044;49.814;7.828;2023-03-14T04:26:09;5.00;;;1.93;;
7997;SDS011;4044;49.814;7.828;2023-03-14T04:28:34;3.57;;;1.80;;
7997;SDS011;4044;49.814;7.828;2023-03-14T04:31:08;3.00;;;1.60;;
7997;SDS011;4044;49.814;7.828;2023-03-14T04:33:39;3.23;;;1.50;;
7997;SDS011;4044;49.814;7.828;2023-03-14T04:36:05;3.97;;;2.03;;
7997;SDS011;4044;49.814;7.828;2023-03-14T04:38:31;3.63;;;1.70;;
7997;SDS011;4044;49.814;7.828;2023-03-14T04:40:58;2.97;;;1.27;;
7997;SDS011;4044;49.814;7.828;2023-03-14T04:43:24;3.90;;;1.70;;
7997;SDS011;4044;49.814;7.828;2023-03-14T04:45:50;3.10;;;1.63;;
7997;SDS011;4044;49.814;7.828;2023-03-14T04:48:18;2.33;;;1.40;;
7997;SDS011;4044;49.814;7.828;2023-03-14T04:50:43;2.20;;;1.50;;
7997;SDS011;4044;49.814;7.828;2023-03-14T04:53:11;4.37;;;1.80;;
7997;SDS011;4044;49.814;7.828;2023-03-14T04:55:36;5.97;;;1.50;;
7997;SDS011;4044;49.814;7.828;2023-03-14T04:58:02;5.90;;;1.70;;
7997;SDS011;4044;49.814;7.828;2023-03-14T05:00:27;4.53;;;1.90;;
7997;SDS011;4044;49.814;7.828;2023-03-14T05:02:53;4.40;;;1.70;;
7997;SDS011;4044;49.814;7.828;2023-03-14T05:05:18;2.27;;;1.73;;
7997;SDS011;4044;49.814;7.828;2023-03-14T05:07:44;4.50;;;1.60;;
7997;SDS011;4044;49.814;7.828;2023-03-14T05:10:10;2.57;;;1.50;;
7997;SDS011;4044;49.814;7.828;2023-03-14T05:12:35;3.87;;;1.77;;
7997;SDS011;4044;49.814;7.828;2023-03-14T05:15:01;3.87;;;1.63;;
7997;SDS011;4044;49.814;7.828;2023-03-14T05:17:27;5.20;;;1.40;;
7997;SDS011;4044;49.814;7.828;2023-03-14T05:19:52;3.00;;;1.53;;
7997;SDS011;4044;49.814;7.828;2023-03-14T05:22:17;2.27;;;1.50;;
7997;SDS011;4044;49.814;7.828;2023-03-14T05:24:43;4.10;;;1.53;;
7997;SDS011;4044;49.814;7.828;2023-03-14T05:27:09;2.07;;;1.80;;
7997;SDS011;4044;49.814;7.828;2023-03-14T05:29:34;4.87;;;1.50;;
7997;SDS011;4044;49.814;7.828;2023-03-14T05:32:00;3.27;;;1.30;;
7997;SDS011;4044;49.814;7.828;2023-03-14T05:34:25;1.93;;;1.37;;
7997;SDS011;4044;49.814;7.828;2023-03-14T05:36:51;3.63;;;1.53;;
7997;SDS011;4044;49.814;7.828;2023-03-14T05:39:16;4.67;;;1.37;;
7997;SDS011;4044;49.814;7.828;2023-03-14T05:41:42;1.67;;;1.27;;
7997;SDS011;4044;49.814;7.828;2023-03-14T05:44:07;3.37;;;1.50;;
7997;SDS011;4044;49.814;7.828;2023-03-14T05:46:33;3.63;;;1.67;;
7997;SDS011;4044;49.814;7.828;2023-03-14T05:48:58;2.33;;;1.20;;
7997;SDS011;4044;49.814;7.828;2023-03-14T05:51:24;2.17;;;1.40;;
7997;SDS011;4044;49.814;7.828;2023-03-14T05:53:50;2.33;;;1.03;;
7997;SDS011;4044;49.814;7.828;2023-03-14T05:56:16;3.37;;;1.60;;
7997;SDS011;4044;49.814;7.828;2023-03-14T05:58:41;1.63;;;1.40;;
7997;SDS011;4044;49.814;7.828;2023-03-14T06:01:07;3.33;;;1.43;;
7997;SDS011;4044;49.814;7.828;2023-03-14T06:03:33;3.70;;;1.53;;
7997;SDS011;4044;49.814;7.828;2023-03-14T06:05:59;3.00;;;1.37;;
7997;SDS011;4044;49.814;7.828;2023-03-14T06:08:25;1.80;;;1.40;;
7997;SDS011;4044;49.814;7.828;2023-03-14T06:10:51;3.57;;;1.63;;
7997;SDS011;4044;49.814;7.828;2023-03-14T06:13:17;1.77;;;1.10;;
7997;SDS011;4044;49.814;7.828;2023-03-14T06:15:42;3.07;;;1.30;;
7997;SDS011;4044;49.814;7.828;2023-03-14T06:18:08;2.53;;;1.57;;
7997;SDS011;4044;49.814;7.828;2023-03-14T06:20:35;1.83;;;1.20;;
7997;SDS011;4044;49.814;7.828;2023-03-14T06:23:04;3.60;;;1.47;;
7997;SDS011;4044;49.814;7.828;2023-03-14T06:25:30;1.40;;;1.30;;
7997;SDS011;4044;49.814;7.828;2023-03-14T06:27:56;2.87;;;1.30;;
7997;SDS011;4044;49.814;7.828;2023-03-14T06:30:22;3.30;;;1.33;;
7997;SDS011;4044;49.814;7.828;2023-03-14T06:32:47;2.50;;;1.27;;
7997;SDS011;4044;49.814;7.828;2023-03-14T06:35:13;2.43;;;1.70;;
7997;SDS011;4044;49.814;7.828;2023-03-14T06:37:38;2.17;;;1.40;;
7997;SDS011;4044;49.814;7.828;2023-03-14T06:40:04;2.63;;;1.50;;
7997;SDS011;4044;49.814;7.828;2023-03-14T06:42:32;2.73;;;1.70;;
7997;SDS011;4044;49.814;7.828;2023-03-14T06:44:57;3.43;;;1.97;;
7997;SDS011;4044;49.814;7.828;2023-03-14T06:47:23;2.00;;;1.47;;
7997;SDS011;4044;49.814;7.828;2023-03-14T06:49:48;2.70;;;1.40;;
7997;SDS011;4044;49.814;7.828;2023-03-14T06:52:14;2.63;;;1.53;;
7997;SDS011;4044;49.814;7.828;2023-03-14T06:54:39;2.47;;;1.50;;
7997;SDS011;4044;49.814;7.828;2023-03-14T06:57:05;3.00;;;1.50;;
7997;SDS011;4044;49.814;7.828;2023-03-14T06:59:30;2.13;;;1.50;;
7997;SDS011;4044;49.814;7.828;2023-03-14T07:01:56;2.00;;;1.80;;
7997;SDS011;4044;49.814;7.828;2023-03-14T07:04:21;2.83;;;1.77;;
7997;SDS011;4044;49.814;7.828;2023-03-14T07:06:47;3.07;;;1.67;;
7997;SDS011;4044;49.814;7.828;2023-03-14T07:09:13;3.27;;;1.70;;
7997;SDS011;4044;49.814;7.828;2023-03-14T07:11:39;1.77;;;1.67;;
7997;SDS011;4044;49.814;7.828;2023-03-14T07:14:05;2.70;;;2.03;;
7997;SDS011;4044;49.814;7.828;2023-03-14T07:16:30;2.67;;;1.70;;
7997;SDS011;4044;49.814;7.828;2023-03-14T07:18:58;3.03;;;1.77;;
7997;SDS011;4044;49.814;7.828;2023-03-14T07:21:24;2.33;;;1.50;;
7997;SDS011;4044;49.814;7.828;2023-03-14T07:23:50;1.43;;;1.30;;
7997;SDS011;4044;49.814;7.828;2023-03-14T07:26:15;1.80;;;1.70;;
7997;SDS011;4044;49.814;7.828;2023-03-14T07:28:41;3.43;;;1.90;;
7997;SDS011;4044;49.814;7.828;2023-03-14T07:31:06;2.93;;;1.97;;
7997;SDS011;4044;49.814;7.828;2023-03-14T07:33:32;2.87;;;1.90;;
7997;SDS011;4044;49.814;7.828;2023-03-14T07:35:58;2.83;;;1.70;;
7997;SDS011;4044;49.814;7.828;2023-03-14T07:38:24;3.40;;;1.70;;
7997;SDS011;4044;49.814;7.828;2023-03-14T07:40:49;2.50;;;1.80;;
7997;SDS011;4044;49.814;7.828;2023-03-14T07:43:15;2.07;;;1.73;;
7997;SDS011;4044;49.814;7.828;2023-03-14T07:45:41;2.57;;;1.50;;
7997;SDS011;4044;49.814;7.828;2023-03-14T07:48:10;4.83;;;1.80;;
7997;SDS011;4044;49.814;7.828;2023-03-14T07:50:35;5.50;;;1.40;;
7997;SDS011;4044;49.814;7.828;2023-03-14T07:53:01;3.03;;;1.60;;
7997;SDS011;4044;49.814;7.828;2023-03-14T07:55:26;2.10;;;1.63;;
7997;SDS011;4044;49.814;7.828;2023-03-14T07:57:52;3.93;;;1.70;;
7997;SDS011;4044;49.814;7.828;2023-03-14T08:00:17;2.00;;;1.80;;
7997;SDS011;4044;49.814;7.828;2023-03-14T08:02:43;1.60;;;1.50;;
7997;SDS011;4044;49.814;7.828;2023-03-14T08:05:09;3.10;;;1.40;;
7997;SDS011;4044;49.814;7.828;2023-03-14T08:07:35;3.87;;;1.40;;
7997;SDS011;4044;49.814;7.828;2023-03-14T08:10:01;2.87;;;1.20;;
7997;SDS011;4044;49.814;7.828;2023-03-14T08:12:27;2.23;;;1.27;;
7997;SDS011;4044;49.814;7.828;2023-03-14T08:14:52;1.37;;;1.27;;
7997;SDS011;4044;49.814;7.828;2023-03-14T08:17:18;1.17;;;1.10;;
7997;SDS011;4044;49.814;7.828;2023-03-14T08:19:44;2.23;;;1.20;;
7997;SDS011;4044;49.814;7.828;2023-03-14T08:22:09;2.23;;;1.20;;
7997;SDS011;4044;49.814;7.828;2023-03-14T08:24:35;3.60;;;1.20;;
7997;SDS011;4044;49.814;7.828;2023-03-14T08:27:00;1.00;;;0.90;;
7997;SDS011;4044;49.814;7.828;2023-03-14T08:29:26;1.00;;;1.00;;
7997;SDS011;4044;49.814;7.828;2023-03-14T08:31:51;4.40;;;1.27;;
7997;SDS011;4044;49.814;7.828;2023-03-14T08:34:17;2.83;;;1.10;;
7997;SDS011;4044;49.814;7.828;2023-03-14T08:36:43;1.13;;;0.97;;
7997;SDS011;4044;49.814;7.828;2023-03-14T08:39:08;1.47;;;1.10;;
7997;SDS011;4044;49.814;7.828;2023-03-14T08:41:34;1.87;;;1.10;;
7997;SDS011;4044;49.814;7.828;2023-03-14T08:44:05;1.10;;;1.10;;
7997;SDS011;4044;49.814;7.828;2023-03-14T08:46:31;2.27;;;1.10;;
7997;SDS011;4044;49.814;7.828;2023-03-14T08:48:57;2.47;;;1.20;;
7997;SDS011;4044;49.814;7.828;2023-03-14T08:51:22;1.10;;;1.00;;
7997;SDS011;4044;49.814;7.828;2023-03-14T08:53:48;2.77;;;1.27;;
7997;SDS011;4044;49.814;7.828;2023-03-14T08:56:13;1.90;;;1.17;;
7997;SDS011;4044;49.814;7.828;2023-03-14T08:58:39;1.67;;;1.13;;
7997;SDS011;4044;49.814;7.828;2023-03-14T09:01:07;1.00;;;1.00;;
7997;SDS011;4044;49.814;7.828;2023-03-14T09:03:34;1.60;;;1.10;;
7997;SDS011;4044;49.814;7.828;2023-03-14T09:06:03;1.40;;;0.93;;
7997;SDS011;4044;49.814;7.828;2023-03-14T09:08:30;1.43;;;0.90;;
7997;SDS011;4044;49.814;7.828;2023-03-14T09:10:56;1.20;;;1.10;;
7997;SDS011;4044;49.814;7.828;2023-03-14T09:13:22;1.57;;;1.20;;
7997;SDS011;4044;49.814;7.828;2023-03-14T09:15:55;1.07;;;1.07;;
7997;SDS011;4044;49.814;7.828;2023-03-14T09:18:21;0.87;;;0.80;;
7997;SDS011;4044;49.814;7.828;2023-03-14T09:20:47;1.50;;;0.80;;
7997;SDS011;4044;49.814;7.828;2023-03-14T09:23:13;0.80;;;0.80;;
7997;SDS011;4044;49.814;7.828;2023-03-14T09:25:39;0.83;;;0.83;;
7997;SDS011;4044;49.814;7.828;2023-03-14T09:28:05;2.43;;;1.00;;
7997;SDS011;4044;49.814;7.828;2023-03-14T09:30:30;2.47;;;1.00;;
7997;SDS011;4044;49.814;7.828;2023-03-14T09:32:56;1.13;;;1.00;;
7997;SDS011;4044;49.814;7.828;2023-03-14T09:35:22;2.27;;;0.77;;
7997;SDS011;4044;49.814;7.828;2023-03-14T09:37:48;0.70;;;0.70;;
7997;SDS011;4044;49.814;7.828;2023-03-14T09:40:15;0.80;;;0.80;;
7997;SDS011;4044;49.814;7.828;2023-03-14T09:42:41;0.80;;;0.80;;
7997;SDS011;4044;49.814;7.828;2023-03-14T09:45:11;0.60;;;0.60;;
7997;SDS011;4044;49.814;7.828;2023-03-14T09:47:51;0.60;;;0.60;;
7997;SDS011;4044;49.814;7.828;2023-03-14T09:50:18;0.93;;;0.70;;
7997;SDS011;4044;49.814;7.828;2023-03-14T09:52:57;1.00;;;0.80;;
7997;SDS011;4044;49.814;7.828;2023-03-14T09:55:27;0.80;;;0.80;;
7997;SDS011;4044;49.814;7.828;2023-03-14T09:58:00;0.70;;;0.60;;
7997;SDS011;4044;49.814;7.828;2023-03-14T10:00:30;0.83;;;0.80;;
7997;SDS011;4044;49.814;7.828;2023-03-14T10:03:00;0.80;;;0.60;;
7997;SDS011;4044;49.814;7.828;2023-03-14T10:05:39;1.03;;;0.60;;
7997;SDS011;4044;49.814;7.828;2023-03-14T10:08:06;0.70;;;0.50;;
7997;SDS011;4044;49.814;7.828;2023-03-14T10:10:35;0.60;;;0.60;;
7997;SDS011;4044;49.814;7.828;2023-03-14T10:13:14;1.80;;;0.70;;
7997;SDS011;4044;49.814;7.828;2023-03-14T10:15:40;0.50;;;0.50;;
7997;SDS011;4044;49.814;7.828;2023-03-14T10:18:10;0.73;;;0.70;;
7997;SDS011;4044;49.814;7.828;2023-03-14T10:23:27;0.87;;;0.77;;
7997;SDS011;4044;49.814;7.828;2023-03-14T10:28:38;1.50;;;0.80;;
7997;SDS011;4044;49.814;7.828;2023-03-14T10:31:07;1.90;;;0.80;;
7997;SDS011;4044;49.814;7.828;2023-03-14T10:33:34;0.60;;;0.60;;
7997;SDS011;4044;49.814;7.828;2023-03-14T10:38:29;1.30;;;0.50;;
7997;SDS011;4044;49.814;7.828;2023-03-14T10:40:57;0.60;;;0.60;;
7997;SDS011;4044;49.814;7.828;2023-03-14T10:43:27;0.40;;;0.40;;
7997;SDS011;4044;49.814;7.828;2023-03-14T10:45:58;0.73;;;0.73;;
7997;SDS011;4044;49.814;7.828;2023-03-14T10:48:31;0.63;;;0.40;;
7997;SDS011;4044;49.814;7.828;2023-03-14T10:53:43;0.53;;;0.37;;
7997;SDS011;4044;49.814;7.828;2023-03-14T10:56:11;0.50;;;0.50;;
7997;SDS011;4044;49.814;7.828;2023-03-14T10:58:42;0.30;;;0.30;;
7997;SDS011;4044;49.814;7.828;2023-03-14T11:15:48;0.30;;;0.30;;
7997;SDS011;4044;49.814;7.828;2023-03-14T11:29:20;0.10;;;0.10;;
7997;SDS011;4044;49.814;7.828;2023-03-14T11:31:51;0.73;;;0.17;;
7997;SDS011;4044;49.814;7.828;2023-03-14T11:34:29;0.10;;;0.10;;
7997;SDS011;4044;49.814;7.828;2023-03-14T11:37:15;1.23;;;0.20;;
7997;SDS011;4044;49.814;7.828;2023-03-14T11:39:48;0.13;;;0.13;;
7997;SDS011;4044;49.814;7.828;2023-03-14T11:42:29;0.83;;;0.10;;
7997;SDS011;4044;49.814;7.828;2023-03-14T11:44:57;0.23;;;0.23;;
7997;SDS011;4044;49.814;7.828;2023-03-14T11:47:34;0.20;;;0.20;;
7997;SDS011;4044;49.814;7.828;2023-03-14T11:50:17;0.10;;;0.10;;
7997;SDS011;4044;49.814;7.828;2023-03-14T11:52:50;0.77;;;0.10;;
7997;SDS011;4044;49.814;7.828;2023-03-14T11:55:54;0.20;;;0.20;;
7997;SDS011;4044;49.814;7.828;2023-03-14T11:58:23;0.10;;;0.10;;
7997;SDS011;4044;49.814;7.828;2023-03-14T12:00:53;0.17;;;0.17;;
7997;SDS011;4044;49.814;7.828;2023-03-14T12:08:47;0.47;;;0.10;;
7997;SDS011;4044;49.814;7.828;2023-03-14T12:11:29;0.40;;;0.23;;
7997;SDS011;4044;49.814;7.828;2023-03-14T12:14:17;0.27;;;0.27;;
7997;SDS011;4044;49.814;7.828;2023-03-14T12:16:46;0.00;;;0.00;;
7997;SDS011;4044;49.814;7.828;2023-03-14T12:19:14;0.20;;;0.20;;
7997;SDS011;4044;49.814;7.828;2023-03-14T12:24:18;0.20;;;0.20;;
7997;SDS011;4044;49.814;7.828;2023-03-14T12:26:54;0.40;;;0.40;;
7997;SDS011;4044;49.814;7.828;2023-03-14T12:29:21;1.07;;;0.50;;
7997;SDS011;4044;49.814;7.828;2023-03-14T12:31:47;0.60;;;0.60;;
7997;SDS011;4044;49.814;7.828;2023-03-14T12:45:13;0.50;;;0.50;;
7997;SDS011;4044;49.814;7.828;2023-03-14T12:48:01;0.40;;;0.40;;
7997;SDS011;4044;49.814;7.828;2023-03-14T12:50:30;0.67;;;0.67;;
7997;SDS011;4044;49.814;7.828;2023-03-14T12:55:51;0.67;;;0.43;;
7997;SDS011;4044;49.814;7.828;2023-03-14T13:01:19;0.60;;;0.60;;
7997;SDS011;4044;49.814;7.828;2023-03-14T13:03:56;0.57;;;0.57;;
7997;SDS011;4044;49.814;7.828;2023-03-14T13:12:03;0.60;;;0.60;;
7997;SDS011;4044;49.814;7.828;2023-03-14T13:14:35;0.60;;;0.60;;
7997;SDS011;4044;49.814;7.828;2023-03-14T13:17:15;0.60;;;0.60;;
7997;SDS011;4044;49.814;7.828;2023-03-14T13:19:48;0.40;;;0.40;;
7997;SDS011;4044;49.814;7.828;2023-03-14T13:22:21;1.23;;;0.80;;
7997;SDS011;4044;49.814;7.828;2023-03-14T13:24:50;1.03;;;0.63;;
7997;SDS011;4044;49.814;7.828;2023-03-14T13:27:22;0.63;;;0.43;;
7997;SDS011;4044;49.814;7.828;2023-03-14T13:29:49;0.70;;;0.70;;
7997;SDS011;4044;49.814;7.828;2023-03-14T13:32:20;0.70;;;0.70;;
7997;SDS011;4044;49.814;7.828;2023-03-14T13:34:47;0.80;;;0.80;;
7997;SDS011;4044;49.814;7.828;2023-03-14T13:37:21;0.80;;;0.80;;
7997;SDS011;4044;49.814;7.828;2023-03-14T13:39:55;0.80;;;0.80;;
7997;SDS011;4044;49.814;7.828;2023-03-14T13:42:26;1.03;;;1.03;;
7997;SDS011;4044;49.814;7.828;2023-03-14T13:44:53;0.80;;;0.80;;
7997;SDS011;4044;49.814;7.828;2023-03-14T13:47:21;1.03;;;0.93;;
7997;SDS011;4044;49.814;7.828;2023-03-14T13:49:51;1.33;;;0.80;;
7997;SDS011;4044;49.814;7.828;2023-03-14T13:52:27;0.82;;;0.82;;
7997;SDS011;4044;49.814;7.828;2023-03-14T13:54:55;0.82;;;0.80;;
7997;SDS011;4044;49.814;7.828;2023-03-14T13:57:22;1.60;;;0.90;;
7997;SDS011;4044;49.814;7.828;2023-03-14T13:59:58;0.83;;;0.60;;
7997;SDS011;4044;49.814;7.828;2023-03-14T14:02:25;1.23;;;1.00;;
7997;SDS011;4044;49.814;7.828;2023-03-14T14:04:52;1.53;;;0.90;;
7997;SDS011;4044;49.814;7.828;2023-03-14T14:07:18;1.10;;;0.90;;
7997;SDS011;4044;49.814;7.828;2023-03-14T14:09:50;1.37;;;0.80;;
7997;SDS011;4044;49.814;7.828;2023-03-14T14:12:18;1.00;;;0.90;;
7997;SDS011;4044;49.814;7.828;2023-03-14T14:15:14;3.73;;;1.10;;
7997;SDS011;4044;49.814;7.828;2023-03-14T14:17:49;1.20;;;0.90;;
7997;SDS011;4044;49.814;7.828;2023-03-14T14:20:22;1.70;;;1.10;;
7997;SDS011;4044;49.814;7.828;2023-03-14T14:22:59;0.67;;;0.67;;
7997;SDS011;4044;49.814;7.828;2023-03-14T14:25:28;0.87;;;0.87;;
7997;SDS011;4044;49.814;7.828;2023-03-14T14:27:54;0.97;;;0.80;;
7997;SDS011;4044;49.814;7.828;2023-03-14T14:32:47;0.88;;;0.82;;
7997;SDS011;4044;49.814;7.828;2023-03-14T14:35:23;2.63;;;1.20;;
7997;SDS011;4044;49.814;7.828;2023-03-14T14:37:56;0.65;;;0.65;;
7997;SDS011;4044;49.814;7.828;2023-03-14T14:40:23;0.88;;;0.73;;
7997;SDS011;4044;49.814;7.828;2023-03-14T14:42:50;0.80;;;0.80;;
7997;SDS011;4044;49.814;7.828;2023-03-14T14:45:17;1.67;;;0.80;;
7997;SDS011;4044;49.814;7.828;2023-03-14T14:47:52;0.83;;;0.80;;
7997;SDS011;4044;49.814;7.828;2023-03-14T14:55:53;0.63;;;0.60;;
7997;SDS011;4044;49.814;7.828;2023-03-14T14:58:24;0.50;;;0.50;;
7997;SDS011;4044;49.814;7.828;2023-03-14T15:01:05;1.43;;;0.90;;
7997;SDS011;4044;49.814;7.828;2023-03-14T15:03:38;0.83;;;0.70;;
7997;SDS011;4044;49.814;7.828;2023-03-14T15:06:08;1.30;;;0.80;;
7997;SDS011;4044;49.814;7.828;2023-03-14T15:08:36;1.27;;;0.90;;
7997;SDS011;4044;49.814;7.828;2023-03-14T15:11:02;1.80;;;0.80;;
7997;SDS011;4044;49.814;7.828;2023-03-14T15:13:28;3.50;;;0.93;;
7997;SDS011;4044;49.814;7.828;2023-03-14T15:15:53;0.80;;;0.80;;
7997;SDS011;4044;49.814;7.828;2023-03-14T15:18:23;1.23;;;0.97;;
7997;SDS011;4044;49.814;7.828;2023-03-14T15:20:50;0.63;;;0.63;;
7997;SDS011;4044;49.814;7.828;2023-03-14T15:23:17;1.03;;;0.63;;
7997;SDS011;4044;49.814;7.828;2023-03-14T15:25:44;2.10;;;0.87;;
7997;SDS011;4044;49.814;7.828;2023-03-14T15:30:50;0.70;;;0.70;;
7997;SDS011;4044;49.814;7.828;2023-03-14T15:33:17;1.17;;;0.70;;
7997;SDS011;4044;49.814;7.828;2023-03-14T15:35:43;1.20;;;0.80;;
7997;SDS011;4044;49.814;7.828;2023-03-14T15:38:09;0.70;;;0.70;;
7997;SDS011;4044;49.814;7.828;2023-03-14T15:40:36;1.57;;;0.83;;
7997;SDS011;4044;49.814;7.828;2023-03-14T15:43:01;1.63;;;0.77;;
7997;SDS011;4044;49.814;7.828;2023-03-14T15:45:27;1.20;;;0.60;;
7997;SDS011;4044;49.814;7.828;2023-03-14T15:47:52;1.13;;;0.70;;
7997;SDS011;4044;49.814;7.828;2023-03-14T15:50:18;1.27;;;0.60;;
7997;SDS011;4044;49.814;7.828;2023-03-14T15:52:44;1.47;;;0.63;;
7997;SDS011;4044;49.814;7.828;2023-03-14T15:55:10;1.33;;;0.80;;
7997;SDS011;4044;49.814;7.828;2023-03-14T15:57:36;1.20;;;0.80;;
7997;SDS011;4044;49.814;7.828;2023-03-14T16:00:02;0.90;;;0.70;;
7997;SDS011;4044;49.814;7.828;2023-03-14T16:02:29;1.23;;;1.07;;
7997;SDS011;4044;49.814;7.828;2023-03-14T16:04:55;1.83;;;0.90;;
7997;SDS011;4044;49.814;7.828;2023-03-14T16:07:21;1.63;;;0.80;;
7997;SDS011;4044;49.814;7.828;2023-03-14T16:09:46;2.83;;;1.40;;
7997;SDS011;4044;49.814;7.828;2023-03-14T16:12:12;1.13;;;1.03;;
7997;SDS011;4044;49.814;7.828;2023-03-14T16:14:37;2.93;;;1.40;;
7997;SDS011;4044;49.814;7.828;2023-03-14T16:17:07;2.23;;;0.70;;
7997;SDS011;4044;49.814;7.828;2023-03-14T16:19:35;1.70;;;1.03;;
7997;SDS011;4044;49.814;7.828;2023-03-14T16:22:01;0.70;;;0.70;;
7997;SDS011;4044;49.814;7.828;2023-03-14T16:24:27;3.20;;;0.97;;
7997;SDS011;4044;49.814;7.828;2023-03-14T16:26:52;1.20;;;0.97;;
7997;SDS011;4044;49.814;7.828;2023-03-14T16:29:18;0.70;;;0.70;;
7997;SDS011;4044;49.814;7.828;2023-03-14T16:31:43;4.37;;;1.20;;
7997;SDS011;4044;49.814;7.828;2023-03-14T16:34:09;1.27;;;1.03;;
7997;SDS011;4044;49.814;7.828;2023-03-14T16:36:35;1.10;;;1.00;;
7997;SDS011;4044;49.814;7.828;2023-03-14T16:39:00;1.17;;;0.80;;
7997;SDS011;4044;49.814;7.828;2023-03-14T16:41:26;1.50;;;1.07;;
7997;SDS011;4044;49.814;7.828;2023-03-14T16:43:56;1.60;;;1.10;;
7997;SDS011;4044;49.814;7.828;2023-03-14T16:46:22;1.60;;;0.90;;